createdAt,value
2022-12-18T00:00:36.279Z,100952.69
2022-12-18T00:02:40.478Z,100951.63
2022-12-18T00:04:46.292Z,100945.34
2022-12-18T00:06:50.330Z,100951.28
2022-12-18T00:08:55.250Z,100945.91
2022-12-18T00:11:06.932Z,100951.06
2022-12-18T00:13:11.569Z,100944.94
2022-12-18T00:15:15.711Z,100956.22
2022-12-18T00:17:19.493Z,100956.94
2022-12-18T00:19:23.037Z,100962.88
2022-12-18T00:21:29.827Z,100954.94
2022-12-18T00:23:34.879Z,100956.53
2022-12-18T00:25:39.524Z,100951.19
2022-12-18T00:27:43.438Z,100951.09
2022-12-18T00:29:47.535Z,100951.88
2022-12-18T00:31:51.431Z,100950.00
2022-12-18T00:33:57.196Z,100954.28
2022-12-18T00:36:03.674Z,100949.91
2022-12-18T00:38:11.122Z,100956.84
2022-12-18T00:40:15.305Z,100956.06
2022-12-18T00:42:36.359Z,100953.50
2022-12-18T00:44:40.594Z,100948.13
2022-12-18T00:46:45.327Z,100934.94
2022-12-18T00:48:49.202Z,100942.63
2022-12-18T00:50:53.603Z,100931.22
2022-12-18T00:52:57.951Z,100936.31
2022-12-18T00:55:06.399Z,100929.16
2022-12-18T00:57:10.752Z,100925.47
2022-12-18T00:59:14.485Z,100921.84
2022-12-18T01:01:18.510Z,100916.47
2022-12-18T01:03:22.855Z,100922.44
2022-12-18T01:05:26.956Z,100920.59
2022-12-18T01:07:31.080Z,100914.31
2022-12-18T01:09:36.074Z,100910.59
2022-12-18T01:11:41.963Z,100907.72
2022-12-18T01:13:47.207Z,100901.38
2022-12-18T01:15:51.651Z,100904.56
2022-12-18T01:17:56.269Z,100908.69
2022-12-18T01:20:00.570Z,100905.91
2022-12-18T01:22:04.846Z,100899.66
2022-12-18T01:24:09.132Z,100888.22
2022-12-18T01:26:15.764Z,100890.72
2022-12-18T01:28:21.071Z,100890.72
2022-12-18T01:30:24.916Z,100895.00
2022-12-18T01:32:33.080Z,100880.94
2022-12-18T01:34:38.052Z,100884.91
2022-12-18T01:36:42.900Z,100876.88
2022-12-18T01:38:46.952Z,100875.06
2022-12-18T01:40:51.324Z,100866.38
2022-12-18T01:42:55.540Z,100863.88
2022-12-18T01:45:05.318Z,100862.09
2022-12-18T01:47:09.936Z,100840.28
2022-12-18T01:49:14.306Z,100845.53
2022-12-18T01:51:19.781Z,100833.38
2022-12-18T01:53:26.368Z,100830.13
2022-12-18T01:55:33.562Z,100836.28
2022-12-18T01:57:40.185Z,100839.81
2022-12-18T01:59:48.177Z,100816.13
2022-12-18T02:01:53.787Z,100805.53
2022-12-18T02:03:58.442Z,100807.34
2022-12-18T02:06:08.478Z,100796.88
2022-12-18T02:08:23.900Z,100791.72
2022-12-18T02:10:32.496Z,100796.00
2022-12-18T02:12:45.813Z,100801.16
2022-12-18T02:14:56.498Z,100800.97
2022-12-18T02:17:06.562Z,100804.50
2022-12-18T02:19:31.035Z,100812.38
2022-12-18T02:21:49.080Z,100799.94
2022-12-18T02:24:04.724Z,100813.69
2022-12-18T02:26:20.737Z,100807.19
2022-12-18T02:28:34.216Z,100802.16
2022-12-18T02:30:43.881Z,100795.72
2022-12-18T02:32:52.086Z,100788.50
2022-12-18T02:34:59.493Z,100780.63
2022-12-18T02:37:09.251Z,100775.44
2022-12-18T02:39:16.380Z,100773.91
2022-12-18T02:41:34.724Z,100768.53
2022-12-18T02:43:40.352Z,100767.63
2022-12-18T02:45:50.924Z,100766.59
2022-12-18T02:47:56.305Z,100777.84
2022-12-18T02:50:07.989Z,100771.00
2022-12-18T02:52:23.103Z,100768.19
2022-12-18T02:54:42.874Z,100758.19
2022-12-18T02:56:53.097Z,100750.97
2022-12-18T02:59:02.806Z,100749.16
2022-12-18T03:01:18.071Z,100744.81
2022-12-18T03:03:27.961Z,100737.09
2022-12-18T03:05:38.778Z,100738.00
2022-12-18T03:07:48.141Z,100736.34
2022-12-18T03:09:54.445Z,100738.13
2022-12-18T03:12:27.472Z,100723.09
2022-12-18T03:14:36.539Z,100721.13
2022-12-18T03:16:42.688Z,100722.84
2022-12-18T03:18:54.574Z,100711.47
2022-12-18T03:21:02.901Z,100701.84
2022-12-18T03:23:11.870Z,100687.03
2022-12-18T03:25:17.623Z,100687.81
2022-12-18T03:27:26.873Z,100677.25
2022-12-18T03:29:37.934Z,100665.88
2022-12-18T03:31:45.556Z,100665.81
2022-12-18T03:33:54.450Z,100662.28
2022-12-18T03:36:02.824Z,100652.59
2022-12-18T03:38:06.333Z,100660.41
2022-12-18T03:40:12.164Z,100664.78
2022-12-18T03:42:23.169Z,100665.72
2022-12-18T03:44:37.715Z,100656.97
2022-12-18T03:46:49.394Z,100669.31
2022-12-18T03:49:00.831Z,100659.00
2022-12-18T03:51:10.909Z,100659.06
2022-12-18T03:53:26.317Z,100663.53
2022-12-18T03:55:35.246Z,100660.19
2022-12-18T03:57:43.293Z,100665.50
2022-12-18T03:59:52.374Z,100645.34
2022-12-18T04:02:00.369Z,100644.25
2022-12-18T04:04:05.521Z,100631.91
2022-12-18T04:06:13.449Z,100637.09
2022-12-18T04:08:18.455Z,100619.63
2022-12-18T04:10:29.209Z,100618.94
2022-12-18T04:12:33.421Z,100630.19
2022-12-18T04:14:36.815Z,100620.66
2022-12-18T04:16:45.572Z,100627.63
2022-12-18T04:18:52.061Z,100621.47
2022-12-18T04:20:56.758Z,100615.41
2022-12-18T04:23:00.235Z,100616.25
2022-12-18T04:25:04.458Z,100598.78
2022-12-18T04:27:13.866Z,100609.19
2022-12-18T04:29:21.089Z,100597.88
2022-12-18T04:31:24.941Z,100586.47
2022-12-18T04:33:30.827Z,100569.59
2022-12-18T04:35:34.872Z,100576.56
2022-12-18T04:37:38.322Z,100559.09
2022-12-18T04:39:42.852Z,100566.16
2022-12-18T04:41:53.239Z,100565.41
2022-12-18T04:43:56.705Z,100545.06
2022-12-18T04:46:05.331Z,100545.69
2022-12-18T04:48:09.079Z,100533.22
2022-12-18T04:50:14.252Z,100543.63
2022-12-18T04:52:17.641Z,100541.81
2022-12-18T04:54:22.206Z,100530.31
2022-12-18T04:56:25.749Z,100511.06
2022-12-18T04:58:29.032Z,100518.13
2022-12-18T05:00:32.613Z,100520.88
2022-12-18T05:02:36.204Z,100500.78
2022-12-18T05:04:39.833Z,100504.34
2022-12-18T05:06:44.617Z,100486.03
2022-12-18T05:08:47.955Z,100481.78
2022-12-18T05:10:51.291Z,100476.53
2022-12-18T05:13:01.349Z,100481.84
2022-12-18T05:15:05.430Z,100465.03
2022-12-18T05:17:09.076Z,100461.44
2022-12-18T05:19:12.399Z,100442.75
2022-12-18T05:21:16.676Z,100442.75
2022-12-18T05:23:22.142Z,100432.25
2022-12-18T05:25:25.904Z,100436.66
2022-12-18T05:27:29.213Z,100429.69
2022-12-18T05:29:32.529Z,100434.25
2022-12-18T05:31:39.714Z,100428.06
2022-12-18T05:33:43.888Z,100435.19
2022-12-18T05:35:53.027Z,100419.50
2022-12-18T05:37:56.403Z,100416.94
2022-12-18T05:40:01.403Z,100425.81
2022-12-18T05:42:04.752Z,100429.44
2022-12-18T05:44:08.241Z,100425.16
2022-12-18T05:46:14.265Z,100439.13
2022-12-18T05:48:18.645Z,100433.19
2022-12-18T05:50:21.957Z,100430.56
2022-12-18T05:52:25.759Z,100427.22
2022-12-18T05:54:29.639Z,100430.75
2022-12-18T05:56:34.428Z,100429.09
2022-12-18T05:58:38.789Z,100426.47
2022-12-18T06:00:45.725Z,100424.75
2022-12-18T06:02:49.579Z,100420.47
2022-12-18T06:04:53.065Z,100418.00
2022-12-18T06:06:56.323Z,100408.28
2022-12-18T06:09:00.276Z,100410.13
2022-12-18T06:11:04.165Z,100410.13
2022-12-18T06:13:10.071Z,100398.91
2022-12-18T06:15:13.871Z,100399.00
2022-12-18T06:17:17.654Z,100390.41
2022-12-18T06:19:21.121Z,100386.06
2022-12-18T06:21:24.715Z,100380.91
2022-12-18T06:23:28.737Z,100388.69
2022-12-18T06:25:32.222Z,100375.56
2022-12-18T06:27:35.716Z,100374.66
2022-12-18T06:29:40.984Z,100366.88
2022-12-18T06:31:44.635Z,100359.06
2022-12-18T06:33:49.233Z,100373.97
2022-12-18T06:35:56.496Z,100360.91
2022-12-18T06:38:03.995Z,100347.03
2022-12-18T06:40:09.150Z,100350.56
2022-12-18T06:42:12.914Z,100334.81
2022-12-18T06:44:16.796Z,100324.31
2022-12-18T06:46:21.699Z,100309.47
2022-12-18T06:48:25.132Z,100302.44
2022-12-18T06:50:29.945Z,100294.72
2022-12-18T06:52:34.612Z,100297.44
2022-12-18T06:54:38.320Z,100302.91
2022-12-18T06:56:41.868Z,100284.72
2022-12-18T06:58:45.652Z,100292.69
2022-12-18T07:00:49.915Z,100293.00
2022-12-18T07:02:55.800Z,100268.59
2022-12-18T07:04:59.646Z,100280.88
2022-12-18T07:07:02.963Z,100261.81
2022-12-18T07:09:06.254Z,100256.63
2022-12-18T07:11:09.566Z,100259.34
2022-12-18T07:13:13.162Z,100254.09
2022-12-18T07:15:17.223Z,100253.25
2022-12-18T07:17:20.635Z,100232.28
2022-12-18T07:19:25.321Z,100233.19
2022-12-18T07:21:28.668Z,100220.09
2022-12-18T07:23:32.894Z,100214.84
2022-12-18T07:25:36.769Z,100205.28
2022-12-18T07:27:40.289Z,100197.41
2022-12-18T07:29:44.219Z,100181.69
2022-12-18T07:31:47.611Z,100189.63
2022-12-18T07:33:52.217Z,100182.66
2022-12-18T07:35:57.196Z,100178.38
2022-12-18T07:38:00.493Z,100173.22
2022-12-18T07:40:04.212Z,100170.59
2022-12-18T07:42:33.376Z,100173.13
2022-12-18T07:44:37.128Z,100159.94
2022-12-18T07:46:41.254Z,100157.16
2022-12-18T07:48:46.121Z,100143.91
2022-12-18T07:50:53.377Z,100129.03
2022-12-18T07:52:58.735Z,100113.31
2022-12-18T07:55:02.404Z,100100.22
2022-12-18T07:57:16.510Z,100094.97
2022-12-18T07:59:29.329Z,100090.63
2022-12-18T08:01:32.947Z,100088.84
2022-12-18T08:03:37.252Z,100085.38
2022-12-18T08:05:41.154Z,100073.28
2022-12-18T08:07:44.654Z,100075.91
2022-12-18T08:09:49.703Z,100069.75
2022-12-18T08:11:53.306Z,100068.03
2022-12-18T08:13:57.961Z,100063.72
2022-12-18T08:16:03.077Z,100041.00
2022-12-18T08:18:11.362Z,100021.69
2022-12-18T08:20:19.305Z,100024.31
2022-12-18T08:22:22.856Z,100001.66
2022-12-18T08:24:26.832Z,100005.28
2022-12-18T08:26:33.477Z,99986.94
2022-12-18T08:28:37.097Z,99978.38
2022-12-18T08:30:40.755Z,99971.50
2022-12-18T08:32:44.825Z,99979.28
2022-12-18T08:34:49.361Z,99960.88
2022-12-18T08:36:53.245Z,99939.06
2022-12-18T08:38:56.969Z,99943.47
2022-12-18T08:41:02.710Z,99925.19
2022-12-18T08:43:25.462Z,99915.53
2022-12-18T08:45:29.969Z,99895.34
2022-12-18T08:47:33.893Z,99890.03
2022-12-18T08:49:38.101Z,99888.25
2022-12-18T08:51:42.962Z,99879.28
2022-12-18T08:53:47.951Z,99885.25
2022-12-18T08:55:51.719Z,99879.75
2022-12-18T08:57:55.552Z,99868.25
2022-12-18T09:00:00.759Z,99871.72
2022-12-18T09:02:04.830Z,99874.19
2022-12-18T09:04:10.444Z,99865.38
2022-12-18T09:06:18.157Z,99874.09
2022-12-18T09:08:22.730Z,99854.75
2022-12-18T09:10:26.886Z,99849.41
2022-12-18T09:12:31.202Z,99833.59
2022-12-18T09:14:34.904Z,99836.97
2022-12-18T09:16:40.677Z,99839.59
2022-12-18T09:18:44.673Z,99850.03
2022-12-18T09:20:49.261Z,99830.81
2022-12-18T09:22:53.141Z,99835.13
2022-12-18T09:25:00.512Z,99835.81
2022-12-18T09:27:04.063Z,99813.78
2022-12-18T09:29:08.803Z,99830.38
2022-12-18T09:31:14.868Z,99768.97
2022-12-18T09:33:20.461Z,99780.91
2022-12-18T09:35:29.055Z,99789.44
2022-12-18T09:37:32.580Z,99756.78
2022-12-18T09:39:36.213Z,99747.81
2022-12-18T09:41:46.980Z,99766.91
2022-12-18T09:43:54.640Z,99751.94
2022-12-18T09:46:03.931Z,99750.84
2022-12-18T09:48:11.018Z,99750.75
2022-12-18T09:50:32.408Z,99745.41
2022-12-18T09:52:40.028Z,99745.41
2022-12-18T09:54:46.640Z,99734.72
2022-12-18T09:56:50.543Z,99738.22
2022-12-18T09:59:00.085Z,99730.25
2022-12-18T10:01:03.712Z,99716.09
2022-12-18T10:03:13.655Z,99723.13
2022-12-18T10:05:31.571Z,99728.28
2022-12-18T10:07:50.025Z,99716.09
2022-12-18T10:10:02.024Z,99716.19
2022-12-18T10:12:12.076Z,99719.56
2022-12-18T10:14:26.009Z,99736.91
2022-12-18T10:16:38.308Z,99733.28
2022-12-18T10:19:03.235Z,99743.00
2022-12-18T10:21:14.640Z,99740.97
2022-12-18T10:23:25.996Z,99730.47
2022-12-18T10:25:37.450Z,99730.28
2022-12-18T10:27:41.293Z,99745.09
2022-12-18T10:29:47.411Z,99752.97
2022-12-18T10:31:51.226Z,99749.41
2022-12-18T10:33:56.804Z,99751.03
2022-12-18T10:36:01.787Z,99743.78
2022-12-18T10:38:11.529Z,99751.59
2022-12-18T10:40:22.377Z,99742.63
2022-12-18T10:42:26.723Z,99760.91
2022-12-18T10:44:30.466Z,99748.53
2022-12-18T10:46:35.134Z,99739.72
2022-12-18T10:48:50.365Z,99754.53
2022-12-18T10:51:10.751Z,99749.09
2022-12-18T10:53:22.890Z,99745.53
2022-12-18T10:55:30.432Z,99747.41
2022-12-18T10:57:38.402Z,99758.78
2022-12-18T10:59:54.200Z,99756.97
2022-12-18T11:01:59.826Z,99749.00
2022-12-18T11:04:10.992Z,99763.66
2022-12-18T11:06:16.504Z,99766.75
2022-12-18T11:08:25.030Z,99757.84
2022-12-18T11:10:33.695Z,99765.63
2022-12-18T11:12:37.774Z,99751.47
2022-12-18T11:14:48.930Z,99761.81
2022-12-18T11:19:28.935Z,99722.13
2022-12-18T11:21:32.649Z,99717.63
2022-12-18T11:23:39.746Z,99723.44
2022-12-18T11:25:54.906Z,99707.28
2022-12-18T11:28:00.915Z,99693.91
2022-12-18T11:30:24.186Z,99670.72
2022-12-18T11:32:36.112Z,99678.19
2022-12-18T11:34:40.087Z,99663.91
2022-12-18T11:36:47.479Z,99651.25
2022-12-18T11:38:55.855Z,99644.00
2022-12-18T11:41:04.571Z,99631.31
2022-12-18T11:43:13.297Z,99627.47
2022-12-18T11:45:33.620Z,99630.63
2022-12-18T11:47:43.175Z,99616.34
2022-12-18T11:49:47.367Z,99596.81
2022-12-18T11:51:55.892Z,99593.03
2022-12-18T11:54:02.617Z,99590.06
2022-12-18T11:56:28.752Z,99578.50
2022-12-18T11:58:49.600Z,99576.59
2022-12-18T12:01:04.272Z,99567.56
2022-12-18T12:03:23.304Z,99561.94
2022-12-18T12:05:45.382Z,99561.63
2022-12-18T12:07:56.644Z,99555.97
2022-12-18T12:10:13.293Z,99547.03
2022-12-18T12:12:32.652Z,99539.13
2022-12-18T12:14:48.149Z,99537.00
2022-12-18T12:16:59.918Z,99537.44
2022-12-18T12:19:18.269Z,99514.16
2022-12-18T12:21:30.950Z,99503.22
2022-12-18T12:23:45.869Z,99503.66
2022-12-18T12:25:58.601Z,99507.75
2022-12-18T12:28:22.601Z,99506.38
2022-12-18T12:30:32.971Z,99501.75
2022-12-18T12:32:52.175Z,99479.16
2022-12-18T12:35:10.058Z,99485.06
2022-12-18T12:37:31.831Z,99497.06
2022-12-18T12:39:39.247Z,99486.94
2022-12-18T12:42:02.442Z,99483.13
2022-12-18T12:44:12.000Z,99464.22
2022-12-18T12:46:19.537Z,99460.19
2022-12-18T12:48:35.830Z,99440.69
2022-12-18T12:50:42.098Z,99439.75
2022-12-18T12:52:48.941Z,99425.38
2022-12-18T12:54:54.331Z,99427.78
2022-12-18T12:57:04.397Z,99440.00
2022-12-18T12:59:16.189Z,99440.41
2022-12-18T13:01:30.969Z,99433.22
2022-12-18T13:03:47.770Z,99428.34
2022-12-18T13:05:57.696Z,99415.78
2022-12-18T13:08:07.331Z,99399.59
2022-12-18T13:10:25.719Z,99404.66
2022-12-18T13:12:49.986Z,99392.06
2022-12-18T13:14:53.768Z,99400.34
2022-12-18T13:17:34.289Z,99391.25
2022-12-18T13:19:39.234Z,99382.16
2022-12-18T13:21:43.126Z,99369.94
2022-12-18T13:23:48.249Z,99366.00
2022-12-18T13:25:52.214Z,99355.09
2022-12-18T13:28:15.284Z,99348.72
2022-12-18T13:30:44.440Z,99323.78
2022-12-18T13:32:48.376Z,99332.53
2022-12-18T13:35:30.120Z,99344.41
2022-12-18T13:37:55.242Z,99316.00
2022-12-18T13:39:59.242Z,99304.63
2022-12-18T13:43:05.821Z,99286.13
2022-12-18T13:45:47.357Z,99285.63
2022-12-18T13:47:52.234Z,99286.63
2022-12-18T13:49:57.334Z,99281.22
2022-12-18T13:52:02.242Z,99281.94
2022-12-18T13:54:20.003Z,99277.72
2022-12-18T13:56:29.348Z,99278.44
2022-12-18T13:58:34.106Z,99276.63
2022-12-18T14:00:38.574Z,99258.88
2022-12-18T14:02:47.790Z,99265.72
2022-12-18T14:04:53.148Z,99246.28
2022-12-18T14:07:03.720Z,99246.84
2022-12-18T14:09:09.524Z,99247.47
2022-12-18T14:11:26.500Z,99252.63
2022-12-18T14:13:35.207Z,99256.19
2022-12-18T14:15:43.436Z,99238.94
2022-12-18T14:17:49.296Z,99237.16
2022-12-18T14:19:54.167Z,99245.91
2022-12-18T14:21:58.642Z,99224.78
2022-12-18T14:24:19.007Z,99230.31
2022-12-18T14:26:28.502Z,99231.97
2022-12-18T14:28:32.903Z,99233.66
2022-12-18T14:30:40.270Z,99232.56
2022-12-18T14:32:43.887Z,99226.47
2022-12-18T14:34:50.881Z,99228.13
2022-12-18T14:36:57.462Z,99210.38
2022-12-18T14:39:02.107Z,99215.66
2022-12-18T14:41:08.291Z,99195.97
2022-12-18T14:43:12.774Z,99206.53
2022-12-18T14:45:43.370Z,99205.16
2022-12-18T14:47:49.025Z,99206.03
2022-12-18T14:49:55.137Z,99214.78
2022-12-18T14:52:01.327Z,99197.25
2022-12-18T14:54:09.762Z,99189.66
2022-12-18T14:56:19.488Z,99189.53
2022-12-18T14:58:25.302Z,99191.22
2022-12-18T15:00:33.948Z,99174.41
2022-12-18T15:02:39.518Z,99175.13
2022-12-18T15:04:45.543Z,99165.41
2022-12-18T15:06:51.610Z,99158.22
2022-12-18T15:08:56.213Z,99164.31
2022-12-18T15:11:01.796Z,99160.03
2022-12-18T15:13:13.182Z,99178.63
2022-12-18T15:15:49.587Z,99176.41
2022-12-18T15:18:00.395Z,99164.53
2022-12-18T15:20:13.030Z,99174.84
2022-12-18T15:22:29.195Z,99154.16
2022-12-18T15:24:34.652Z,99159.03
2022-12-18T15:26:40.411Z,99174.88
2022-12-18T15:28:48.982Z,99168.06
2022-12-18T15:31:06.067Z,99166.41
2022-12-18T15:33:26.177Z,99175.28
2022-12-18T15:35:30.869Z,99157.47
2022-12-18T15:37:37.163Z,99161.13
2022-12-18T15:39:41.733Z,99164.97
2022-12-18T15:42:06.623Z,99167.19
2022-12-18T15:44:25.026Z,99176.91
2022-12-18T15:46:30.242Z,99166.59
2022-12-18T15:48:36.631Z,99155.19
2022-12-18T15:50:41.088Z,99153.06
2022-12-18T15:52:49.166Z,99149.97
2022-12-18T15:55:11.385Z,99167.06
2022-12-18T15:57:26.090Z,99165.88
2022-12-18T15:59:31.184Z,99142.59
2022-12-18T16:01:39.542Z,99136.34
2022-12-18T16:03:46.615Z,99132.72
2022-12-18T16:05:51.798Z,99133.00
2022-12-18T16:07:57.787Z,99124.81
2022-12-18T16:10:02.878Z,99129.16
2022-12-18T16:12:18.385Z,99118.84
2022-12-18T16:14:25.286Z,99107.41
2022-12-18T16:16:30.788Z,99106.31
2022-12-18T16:18:36.269Z,99114.88
2022-12-18T16:20:42.382Z,99107.78
2022-12-18T16:22:48.415Z,99107.00
2022-12-18T16:24:56.660Z,99103.00
2022-12-18T16:27:02.399Z,99096.16
2022-12-18T16:29:06.759Z,99104.50
2022-12-18T16:31:12.950Z,99099.84
2022-12-18T16:33:19.122Z,99098.88
2022-12-18T16:35:25.998Z,99102.56
2022-12-18T16:37:30.381Z,99103.03
2022-12-18T16:39:36.226Z,99094.78
2022-12-18T16:41:43.999Z,99106.25
2022-12-18T16:43:54.491Z,99106.09
2022-12-18T16:46:02.072Z,99112.53
2022-12-18T16:48:07.131Z,99110.88
2022-12-18T16:50:13.049Z,99119.13
2022-12-18T16:52:17.367Z,99111.50
2022-12-18T16:54:22.519Z,99106.78
2022-12-18T16:56:27.218Z,99107.59
2022-12-18T16:58:33.393Z,99099.00
2022-12-18T17:00:41.437Z,99099.44
2022-12-18T17:02:47.197Z,99091.09
2022-12-18T17:04:55.210Z,99092.91
2022-12-18T17:06:59.190Z,99087.34
2022-12-18T17:09:06.839Z,99096.94
2022-12-18T17:11:11.400Z,99076.19
2022-12-18T17:13:15.959Z,99081.91
2022-12-18T17:15:21.942Z,99085.13
2022-12-18T17:17:26.553Z,99079.56
2022-12-18T17:19:31.310Z,99062.00
2022-12-18T17:21:35.649Z,99068.44
2022-12-18T17:23:40.025Z,99077.06
2022-12-18T17:25:44.719Z,99080.66
2022-12-18T17:27:48.845Z,99077.34
2022-12-18T17:29:52.939Z,99074.97
2022-12-18T17:31:58.724Z,99061.75
2022-12-18T17:34:05.212Z,99058.38
2022-12-18T17:36:09.723Z,99068.97
2022-12-18T17:38:13.779Z,99053.09
2022-12-18T17:40:18.335Z,99056.56
2022-12-18T17:42:23.427Z,99047.81
2022-12-18T17:44:27.659Z,99055.06
2022-12-18T17:46:33.451Z,99055.59
2022-12-18T17:48:40.075Z,99053.91
2022-12-18T17:50:44.645Z,99052.22
2022-12-18T17:52:52.788Z,99047.88
2022-12-18T17:54:57.519Z,99056.50
2022-12-18T17:57:02.197Z,99047.88
2022-12-18T17:59:07.366Z,99050.53
2022-12-18T18:01:14.360Z,99054.88
2022-12-18T18:03:21.374Z,99047.22
2022-12-18T18:05:28.565Z,99048.06
2022-12-18T18:07:33.202Z,99046.13
2022-12-18T18:09:38.471Z,99049.72
2022-12-18T18:12:00.388Z,99036.50
2022-12-18T18:14:08.591Z,99040.53
2022-12-18T18:16:15.578Z,99035.41
2022-12-18T18:18:19.972Z,99035.16
2022-12-18T18:20:30.629Z,99026.63
2022-12-18T18:22:35.616Z,99031.94
2022-12-18T18:24:41.108Z,99025.22
2022-12-18T18:26:47.218Z,99022.19
2022-12-18T18:28:55.288Z,99013.25
2022-12-18T18:31:00.281Z,99022.03
2022-12-18T18:33:10.356Z,99023.84
2022-12-18T18:35:45.163Z,99023.69
2022-12-18T18:37:44.807Z,99014.78
2022-12-18T18:39:49.334Z,99007.69
2022-12-18T18:41:54.479Z,99002.13
2022-12-18T18:44:00.032Z,98991.38
2022-12-18T18:46:06.572Z,98997.38
2022-12-18T18:48:11.575Z,98991.78
2022-12-18T18:50:16.777Z,99003.06
2022-12-18T18:52:22.775Z,98996.78
2022-12-18T18:54:29.682Z,99001.53
2022-12-18T18:56:56.708Z,99000.25
2022-12-18T18:59:00.153Z,98999.00
2022-12-18T19:01:07.253Z,99013.91
2022-12-18T19:03:12.751Z,99005.97
2022-12-18T19:05:17.854Z,99001.22
2022-12-18T19:07:30.599Z,99001.53
2022-12-18T19:09:37.761Z,98992.72
2022-12-18T19:11:59.408Z,99001.75
2022-12-18T19:14:07.227Z,98996.16
2022-12-18T19:16:13.942Z,98993.09
2022-12-18T19:18:18.823Z,98991.16
2022-12-18T19:20:24.394Z,98997.03
2022-12-18T19:22:29.667Z,98998.69
2022-12-18T19:24:34.802Z,98987.00
2022-12-18T19:26:40.639Z,99001.19
2022-12-18T19:28:46.176Z,99007.34
2022-12-18T19:30:59.266Z,99011.78
2022-12-18T19:33:19.813Z,99002.59
2022-12-18T19:35:32.140Z,98995.34
2022-12-18T19:37:37.567Z,98993.66
2022-12-18T19:39:42.403Z,98981.13
2022-12-18T19:41:49.243Z,98966.06
2022-12-18T19:43:54.780Z,98971.50
2022-12-18T19:46:01.345Z,98973.84
2022-12-18T19:48:07.826Z,98965.91
2022-12-18T19:50:12.337Z,98968.56
2022-12-18T19:52:17.467Z,98966.88
2022-12-18T19:54:22.288Z,98957.13
2022-12-18T19:56:28.816Z,98948.47
2022-12-18T19:58:35.289Z,98956.28
2022-12-18T20:00:39.845Z,98970.22
2022-12-18T20:02:44.454Z,98981.78
2022-12-18T20:04:49.156Z,98982.91
2022-12-18T20:06:55.316Z,98961.88
2022-12-18T20:09:05.407Z,98939.56
2022-12-18T20:11:10.150Z,98932.59
2022-12-18T20:13:14.543Z,98931.63
2022-12-18T20:15:21.031Z,98923.38
2022-12-18T20:17:25.424Z,98905.69
2022-12-18T20:19:30.059Z,98904.00
2022-12-18T20:21:35.377Z,98902.03
2022-12-18T20:23:40.261Z,98896.06
2022-12-18T20:25:45.373Z,98887.13
2022-12-18T20:27:49.980Z,98887.94
2022-12-18T20:29:54.470Z,98888.09
2022-12-18T20:32:02.812Z,98881.44
2022-12-18T20:34:08.389Z,98886.03
2022-12-18T20:36:20.161Z,98860.81
2022-12-18T20:38:28.343Z,98860.16
2022-12-18T20:40:34.496Z,98866.69
2022-12-18T20:42:39.268Z,98865.31
2022-12-18T20:44:43.876Z,98872.72
2022-12-18T20:46:48.504Z,98870.22
2022-12-18T20:48:54.128Z,98870.50
2022-12-18T20:51:03.925Z,98875.97
2022-12-18T20:53:07.879Z,98876.06
2022-12-18T20:55:11.992Z,98875.25
2022-12-18T20:57:16.397Z,98860.34
2022-12-18T20:59:21.157Z,98855.91
2022-12-18T21:01:27.072Z,98839.84
2022-12-18T21:03:31.312Z,98856.72
2022-12-18T21:05:37.710Z,98867.16
2022-12-18T21:07:44.076Z,98855.91
2022-12-18T21:09:48.412Z,98862.97
2022-12-18T21:12:12.398Z,98865.47
2022-12-18T21:14:20.508Z,98865.94
2022-12-18T21:16:25.365Z,98853.50
2022-12-18T21:18:31.195Z,98840.97
2022-12-18T21:20:37.645Z,98838.34
2022-12-18T21:22:42.107Z,98831.38
2022-12-18T21:24:46.542Z,98831.66
2022-12-18T21:26:51.629Z,98839.06
2022-12-18T21:28:57.305Z,98838.53
2022-12-18T21:31:02.195Z,98833.38
2022-12-18T21:33:06.968Z,98835.19
2022-12-18T21:35:11.806Z,98829.22
2022-12-18T21:37:17.611Z,98819.91
2022-12-18T21:39:23.049Z,98838.03
2022-12-18T21:41:45.958Z,98835.78
2022-12-18T21:44:10.586Z,98847.66
2022-12-18T21:46:17.397Z,98846.81
2022-12-18T21:48:21.939Z,98848.34
2022-12-18T21:50:27.369Z,98837.47
2022-12-18T21:52:34.405Z,98847.38
2022-12-18T21:54:40.009Z,98850.28
2022-12-18T21:56:52.553Z,98837.22
2022-12-18T21:58:57.548Z,98837.34
2022-12-18T22:01:02.708Z,98844.78
2022-12-18T22:03:17.487Z,98839.75
2022-12-18T22:05:42.204Z,98860.38
2022-12-18T22:07:48.961Z,98852.59
2022-12-18T22:09:53.656Z,98846.44
2022-12-18T22:11:58.291Z,98844.50
2022-12-18T22:14:02.485Z,98850.47
2022-12-18T22:16:07.535Z,98852.16
2022-12-18T22:18:14.893Z,98838.63
2022-12-18T22:20:20.443Z,98842.78
2022-12-18T22:22:25.101Z,98827.75
2022-12-18T22:24:31.282Z,98814.41
2022-12-18T22:26:40.278Z,98812.41
2022-12-18T22:29:02.342Z,98838.88
2022-12-18T22:31:07.649Z,98831.91
2022-12-18T22:33:12.100Z,98825.50
2022-12-18T22:35:16.615Z,98816.28
2022-12-18T22:37:21.764Z,98811.84
2022-12-18T22:39:28.491Z,98818.78
2022-12-18T22:41:35.262Z,98819.66
2022-12-18T22:43:39.909Z,98815.31
2022-12-18T22:45:47.612Z,98808.19
2022-12-18T22:47:52.451Z,98818.28
2022-12-18T22:49:57.745Z,98798.50
2022-12-18T22:52:02.553Z,98791.28
2022-12-18T22:54:07.339Z,98781.25
2022-12-18T22:56:17.136Z,98789.88
2022-12-18T22:58:27.888Z,98803.41
2022-12-18T23:00:32.151Z,98823.03
2022-12-18T23:02:37.111Z,98824.88
2022-12-18T23:04:41.661Z,98812.75
2022-12-18T23:06:47.070Z,98810.25
2022-12-18T23:08:55.842Z,98818.88
2022-12-18T23:11:01.013Z,98817.03
2022-12-18T23:13:06.065Z,98800.06
2022-12-18T23:15:13.005Z,98800.75
2022-12-18T23:17:19.397Z,98809.09
2022-12-18T23:19:25.100Z,98808.34
2022-12-18T23:21:30.188Z,98812.34
2022-12-18T23:23:36.630Z,98798.38
2022-12-18T23:25:42.188Z,98786.03
2022-12-18T23:27:49.066Z,98798.00
2022-12-18T23:29:53.671Z,98792.53
2022-12-18T23:32:01.312Z,98794.06
2022-12-18T23:34:06.516Z,98807.44
2022-12-18T23:36:11.315Z,98796.16
2022-12-18T23:38:16.308Z,98794.19
2022-12-18T23:40:20.913Z,98791.28
2022-12-18T23:42:25.774Z,98789.84
2022-12-18T23:44:32.163Z,98800.69
2022-12-18T23:46:37.819Z,98792.81
2022-12-18T23:48:44.026Z,98793.72
2022-12-18T23:50:48.604Z,98792.16
2022-12-18T23:52:53.080Z,98796.50
2022-12-18T23:54:57.883Z,98800.09
2022-12-18T23:57:02.158Z,98793.34
2022-12-18T23:59:07.135Z,98793.72
